Marrakech, Morocco

7:04 AM WET on February 11, 2016 (GMT +0000)
Menara | | Change Station
CLOSE
Current Station
Airport
Location: Marrakech,
Elevation: 1529 ft
Nearby Weather Stations

Elev 1529 ft 31.61 °N, 8.04 °W | Updated 4 minutes ago

Scattered Clouds
Scattered Clouds
50 °F
Feels Like 50 °F
N
7
Wind Variable Wind from NW

Today
High -- | Low -- °F
--% Chance of Precip.
Yesterday
High -- | Low -- °F
Precip. -- in
Pressure 30.24 in
Visibility 5.0 miles
Clouds Mostly Cloudy 1000 ft
Scattered Clouds 20000 ft
Dew Point 50 °F
Humidity 100%
Rainfall 0.00 in
Snow Depth Not available.
7:18 AM 6:15 PM
Waxing Crescent, 10% visible
METAR GMMX 110700Z 32006KT 290V360 8000 BKN010 SCT200 10/10 Q1024 TEMPO 5000
Pressure 30.24 in
Visibility 5.0 miles
Clouds Mostly Cloudy 1000 ft
Scattered Clouds 20000 ft
Dew Point 50 °F
Humidity 100%
Rainfall 0.00 in
Snow Depth Not available.
7:18 AM 6:15 PM
Waxing Crescent, 10% visible
METAR GMMX 110700Z 32006KT 290V360 8000 BKN010 SCT200 10/10 Q1024 TEMPO 5000

10-Day Weather Forecast

No radar image for this location.
×

Almanac

Astronomy

Feb. 11, 2016 Rise Set
Actual Time
Civil Twilight
Nautical Twilight
Astronomical Twilight
Moon
Length of Visible Light
Length of Day
Tomorrow will be .
, % of the Moon is Illuminated

Today's Extremes

Country Highs Country Lows

Community

WunderPhotos

Upload Photos

1,892,028 photos uploaded!

WunderBlog® & News

Nearby

Air Quality

  Air Quality AQ Index Pollutant
Not available.

Snow Depth

Station Depth Elevation

Earthquake Activity

City Distance Mag. Time & Date
Minimum magnitude displayed is 2.5.

Coastal Water Temperatures

Place Temperature

Stations

Nearby Weather Stations

Station Location Temp. Windchill Dew Point Humidity Wind Precip. Elev Updated Type